createdAt,value
2017-08-03T00:00:02.831Z,95.13
2017-08-03T00:05:02.303Z,95.35
2017-08-03T00:10:02.560Z,95.23
2017-08-03T00:15:02.777Z,95.53
2017-08-03T00:20:02.345Z,95.27
2017-08-03T00:25:02.625Z,95.38
2017-08-03T00:30:02.795Z,95.15
2017-08-03T00:35:02.942Z,93.7
2017-08-03T00:40:02.124Z,95.07
2017-08-03T00:45:02.331Z,95.81
2017-08-03T00:50:02.888Z,96.36
2017-08-03T00:55:02.095Z,95.76
2017-08-03T01:00:02.308Z,96.36
2017-08-03T01:05:02.148Z,96.63
2017-08-03T01:10:02.399Z,96.71
2017-08-03T01:15:02.610Z,96.31
2017-08-03T01:20:02.190Z,96.25
2017-08-03T01:25:02.412Z,97.24
2017-08-03T01:30:02.633Z,96.53
2017-08-03T01:35:02.310Z,97.24
2017-08-03T01:40:02.600Z,97.44
2017-08-03T01:45:02.806Z,97.44
2017-08-03T01:50:02.402Z,97.43
2017-08-03T01:55:02.670Z,97.41
2017-08-03T02:00:02.857Z,97.36
2017-08-03T02:05:02.981Z,97.94
2017-08-03T02:10:02.198Z,97.84
2017-08-03T02:15:02.395Z,98.53
2017-08-03T02:20:02.810Z,98.86
2017-08-03T02:25:02.038Z,98.98
2017-08-03T02:30:02.260Z,99.24
2017-08-03T02:35:02.219Z,99.27
2017-08-03T02:40:02.441Z,99
2017-08-03T02:45:02.616Z,99.5
2017-08-03T02:50:02.396Z,99.73
2017-08-03T02:55:02.612Z,99.37
2017-08-03T03:00:02.791Z,99.36
2017-08-03T03:05:02.683Z,99.15
2017-08-03T03:10:02.904Z,99.35
2017-08-03T03:15:02.059Z,99.21
2017-08-03T03:20:02.672Z,99.62
2017-08-03T03:25:02.925Z,99.77
2017-08-03T03:30:02.167Z,99.92
2017-08-03T03:35:02.598Z,99.69
2017-08-03T03:40:02.816Z,100.04
2017-08-03T03:45:02.992Z,99.8
2017-08-03T03:50:02.589Z,99.83
2017-08-03T03:55:02.815Z,99.72
2017-08-03T04:00:03.015Z,99.82
2017-08-03T04:05:02.540Z,99.79
2017-08-03T04:10:02.737Z,100.08
2017-08-03T04:15:02.944Z,100.22
2017-08-03T04:20:02.662Z,100.07
2017-08-03T04:25:02.988Z,100.32
2017-08-03T04:30:02.194Z,100.41
2017-08-03T04:35:02.299Z,100.54
2017-08-03T04:40:02.511Z,100.6
2017-08-03T04:45:03.241Z,100.61
2017-08-03T04:50:02.543Z,100.62
2017-08-03T04:55:03.089Z,100.71
2017-08-03T05:00:02.563Z,100.79
2017-08-03T05:05:02.483Z,101.4
2017-08-03T05:10:02.985Z,101.43
2017-08-03T05:15:02.478Z,101.48
2017-08-03T05:20:03.139Z,101.62
2017-08-03T05:25:02.669Z,101.83
2017-08-03T05:30:08.137Z,102.34
2017-08-03T05:35:02.650Z,102.67
2017-08-03T05:40:03.159Z,103.06
2017-08-03T05:45:02.625Z,102.78
2017-08-03T05:50:03.174Z,102.74
2017-08-03T05:55:02.657Z,102.85
2017-08-03T06:00:03.153Z,102.81
2017-08-03T06:05:03.213Z,103
2017-08-03T06:10:02.738Z,103.03
2017-08-03T06:15:03.314Z,103.21
2017-08-03T06:20:02.958Z,102.98
2017-08-03T06:25:02.468Z,103.25
2017-08-03T06:30:02.949Z,102.63
2017-08-03T06:35:02.354Z,103.21
2017-08-03T06:40:02.883Z,103.49
2017-08-03T06:45:02.426Z,102.06
2017-08-03T06:50:02.673Z,101.08
2017-08-03T06:55:03.202Z,101.4
2017-08-03T07:00:02.649Z,101.56
2017-08-03T07:05:03.171Z,100.78
2017-08-03T07:10:02.651Z,100.95
2017-08-03T07:15:03.195Z,100.66
2017-08-03T07:20:02.821Z,100.86
2017-08-03T07:25:02.328Z,101.03
2017-08-03T07:30:02.790Z,100.57
2017-08-03T07:35:02.321Z,100.75
2017-08-03T07:40:02.860Z,100.59
2017-08-03T07:45:02.323Z,101.04
2017-08-03T07:50:02.341Z,100.72
2017-08-03T07:55:02.816Z,100.08
2017-08-03T08:00:03.300Z,99.98
2017-08-03T08:05:03.023Z,99.55
2017-08-03T08:10:02.517Z,99.87
2017-08-03T08:15:03.020Z,98.21
2017-08-03T08:20:02.952Z,97.5
2017-08-03T08:25:02.477Z,97.14
2017-08-03T08:30:03.003Z,97.95
2017-08-03T08:35:02.802Z,98.82
2017-08-03T08:40:03.294Z,99.51
2017-08-03T08:45:02.808Z,98.34
2017-08-03T08:50:02.809Z,99.11
2017-08-03T08:55:03.320Z,95.86
2017-08-03T09:00:02.819Z,94.64
2017-08-03T09:05:02.397Z,95.5
2017-08-03T09:10:02.908Z,94.29
2017-08-03T09:15:02.445Z,95.72
2017-08-03T09:20:02.720Z,95.29
2017-08-03T09:25:03.211Z,95.47
2017-08-03T09:30:07.722Z,95.32
2017-08-03T09:35:03.272Z,95.14
2017-08-03T09:40:02.780Z,96.47
2017-08-03T09:45:03.282Z,95.57
2017-08-03T09:50:02.471Z,95.93
2017-08-03T09:55:03.002Z,95.36
2017-08-03T10:00:02.494Z,93.99
2017-08-03T10:05:02.735Z,93.12
2017-08-03T10:10:03.266Z,91.84
2017-08-03T10:15:02.757Z,93.14
2017-08-03T10:20:02.961Z,93.1
2017-08-03T10:25:02.456Z,94.79
2017-08-03T10:30:02.996Z,94.32
2017-08-03T10:35:02.573Z,93.37
2017-08-03T10:40:03.077Z,91.69
2017-08-03T10:45:02.596Z,91.84
2017-08-03T10:50:03.105Z,91.11
2017-08-03T10:55:02.605Z,92.44
2017-08-03T11:00:03.131Z,92.42
2017-08-03T11:05:03.105Z,92.93
2017-08-03T11:10:03.647Z,93.46
2017-08-03T11:15:03.175Z,92.32
2017-08-03T11:20:02.735Z,91.74
2017-08-03T11:25:03.259Z,90.32
2017-08-03T11:30:02.756Z,87.78
2017-08-03T11:35:02.339Z,85.52
2017-08-03T11:40:02.835Z,83.31
2017-08-03T11:45:03.327Z,84.1
2017-08-03T11:50:02.849Z,80.95
2017-08-03T11:55:02.384Z,77.33
2017-08-03T12:00:02.906Z,74.36
2017-08-03T12:05:02.586Z,74.46
2017-08-03T12:10:08.117Z,72.84
2017-08-03T12:15:02.575Z,71.57
2017-08-03T12:20:02.722Z,68.96
2017-08-03T12:25:03.256Z,68.35
2017-08-03T12:30:02.742Z,67.83
2017-08-03T12:35:03.252Z,69.67
2017-08-03T12:40:02.724Z,70.48
2017-08-03T12:45:03.270Z,71.76
2017-08-03T12:50:03.234Z,73.01
2017-08-03T12:55:02.725Z,70.22
2017-08-03T13:00:03.219Z,70.66
2017-08-03T13:05:02.873Z,72.49
2017-08-03T13:10:02.360Z,73.86
2017-08-03T13:15:02.808Z,72.12
2017-08-03T13:20:02.495Z,71.11
2017-08-03T13:25:03.023Z,69.62
2017-08-03T13:30:02.526Z,68.75
2017-08-03T13:35:02.498Z,65.75
2017-08-03T13:40:03.042Z,66.53
2017-08-03T13:45:02.553Z,66.03
2017-08-03T13:50:03.072Z,65.88
2017-08-03T13:55:02.573Z,66.09
2017-08-03T14:00:03.096Z,63.49
2017-08-03T14:05:02.722Z,64.96
2017-08-03T14:10:03.229Z,66.03
2017-08-03T14:15:02.722Z,66.9
2017-08-03T14:20:02.839Z,65.59
2017-08-03T14:25:03.340Z,66.49
2017-08-03T14:30:02.819Z,67.93
2017-08-03T14:35:02.566Z,65.73
2017-08-03T14:40:03.079Z,65.41
2017-08-03T14:45:02.566Z,65.42
2017-08-03T14:50:02.488Z,66.72
2017-08-03T14:55:02.970Z,65.58
2017-08-03T15:00:07.494Z,65.63
2017-08-03T15:05:03.021Z,63.62
2017-08-03T15:10:02.544Z,62.65
2017-08-03T15:15:03.055Z,62.33
2017-08-03T15:20:02.698Z,63.23
2017-08-03T15:25:03.201Z,62.05
2017-08-03T15:30:02.681Z,58.54
2017-08-03T15:35:02.993Z,56.94
2017-08-03T15:40:02.511Z,58.37
2017-08-03T15:45:02.979Z,58.66
2017-08-03T15:50:02.699Z,56.18
2017-08-03T15:55:03.206Z,57.22
2017-08-03T16:00:02.688Z,54.16
2017-08-03T16:05:02.412Z,55.42
2017-08-03T16:10:02.969Z,55.96
2017-08-03T16:15:02.477Z,55.7
2017-08-03T16:20:02.498Z,54.15
2017-08-03T16:25:02.996Z,55.48
2017-08-03T16:30:02.461Z,55.94
2017-08-03T16:35:03.355Z,55.82
2017-08-03T16:40:02.881Z,56.05
2017-08-03T16:45:02.365Z,56.56
2017-08-03T16:50:03.229Z,57.37
2017-08-03T16:55:02.737Z,58.98
2017-08-03T17:00:03.212Z,59.08
2017-08-03T17:05:02.814Z,59.36
2017-08-03T17:10:03.335Z,58.75
2017-08-03T17:15:02.820Z,59.91
2017-08-03T17:20:02.474Z,59.62
2017-08-03T17:25:02.976Z,60.33
2017-08-03T17:30:02.492Z,61.39
2017-08-03T17:35:03.033Z,61.65
2017-08-03T17:40:02.576Z,60.49
2017-08-03T17:45:03.134Z,61.64
2017-08-03T17:50:02.629Z,62.77
2017-08-03T17:55:03.143Z,61.95
2017-08-03T18:00:02.654Z,63.1
2017-08-03T18:05:03.007Z,63.4
2017-08-03T18:10:02.526Z,64.8
2017-08-03T18:15:03.000Z,64.54
2017-08-03T18:20:02.656Z,65.27
2017-08-03T18:25:03.158Z,65.82
2017-08-03T18:30:02.601Z,66.96
2017-08-03T18:35:02.417Z,67.48
2017-08-03T18:40:02.924Z,68.22
2017-08-03T18:45:02.439Z,68.34
2017-08-03T18:50:03.088Z,68.73
2017-08-03T18:55:02.547Z,68.78
2017-08-03T19:00:03.025Z,69.15
2017-08-03T19:05:03.334Z,69.7
2017-08-03T19:10:02.806Z,70.5
2017-08-03T19:15:03.333Z,71.2
2017-08-03T19:20:02.984Z,71.18
2017-08-03T19:25:02.517Z,71.11
2017-08-03T19:30:02.978Z,72.09
2017-08-03T19:35:02.479Z,72.5
2017-08-03T19:40:02.956Z,72.27
2017-08-03T19:45:02.432Z,72.41
2017-08-03T19:50:02.931Z,72.36
2017-08-03T19:55:02.435Z,72.24
2017-08-03T20:00:02.909Z,71.05
2017-08-03T20:05:03.026Z,70.53
2017-08-03T20:10:02.563Z,68.94
2017-08-03T20:15:03.099Z,67.97
2017-08-03T20:20:02.792Z,67.59
2017-08-03T20:25:03.305Z,67.8
2017-08-03T20:30:02.767Z,67.91
2017-08-03T20:35:03.310Z,68.44
2017-08-03T20:40:02.820Z,70.47
2017-08-03T20:45:03.356Z,72.72
2017-08-03T20:50:02.950Z,73.28
2017-08-03T20:55:02.476Z,72.85
2017-08-03T21:00:03.014Z,72.66
2017-08-03T21:05:03.424Z,74.26
2017-08-03T21:10:02.927Z,75.78
2017-08-03T21:15:02.405Z,75.85
2017-08-03T21:20:03.211Z,76.7
2017-08-03T21:25:02.690Z,77.11
2017-08-03T21:30:03.170Z,75.29
2017-08-03T21:35:02.739Z,73.41
2017-08-03T21:40:03.271Z,73.5
2017-08-03T21:45:02.771Z,72.05
2017-08-03T21:50:03.033Z,72.62
2017-08-03T21:55:02.529Z,72.8
2017-08-03T22:00:03.176Z,71.67
2017-08-03T22:05:02.836Z,72.95
2017-08-03T22:10:03.318Z,72.5
2017-08-03T22:15:02.788Z,71.51
2017-08-03T22:20:02.909Z,69.42
2017-08-03T22:25:03.404Z,70.53
2017-08-03T22:30:02.905Z,70.16
2017-08-03T22:35:02.515Z,70.82
2017-08-03T22:40:03.085Z,71.04
2017-08-03T22:45:02.621Z,70.76
2017-08-03T22:50:02.838Z,70.56
2017-08-03T22:55:03.320Z,70.9
2017-08-03T23:00:02.815Z,70.57
2017-08-03T23:05:02.587Z,71.27
2017-08-03T23:10:03.033Z,73.69
2017-08-03T23:15:02.503Z,71.95
2017-08-03T23:20:02.658Z,71.31
2017-08-03T23:25:03.168Z,69.63
2017-08-03T23:30:02.652Z,69.12
2017-08-03T23:35:02.744Z,69.76
2017-08-03T23:40:03.276Z,70.74
2017-08-03T23:45:02.763Z,70.69
2017-08-03T23:50:02.770Z,70.81
2017-08-03T23:55:03.279Z,70.88
